Time;durP1;ratioP1;P1;durP2;ratioP2;P2;SDS_P1;SDS_P2;PMS_P1;PMS_P2;Temp;Humidity;BMP_temperature;BMP_pressure;BME280_temperature;BME280_humidity;BME280_pressure;Samples;Min_cycle;Max_cycle;Signal;HPM_P1;HPM_P2
2022/03/15 00:01:03;;;;;;;5.90;1.80;;;18.70;38.10;;;;;;4998920;28;20232;-67
2022/03/15 00:03:30;;;;;;;2.03;1.93;;;18.70;38.10;;;;;;5005039;28;20798;-65
2022/03/15 00:05:55;;;;;;;1.97;1.80;;;18.70;38.10;;;;;;4996919;28;20479;-65
2022/03/15 00:08:21;;;;;;;1.93;1.83;;;18.70;38.10;;;;;;4999793;28;20939;-65
2022/03/15 00:10:48;;;;;;;2.20;2.10;;;18.70;38.10;;;;;;5003524;28;20233;-65
2022/03/15 00:13:15;;;;;;;1.77;1.67;;;18.70;38.10;;;;;;5002385;28;20219;-65
2022/03/15 00:15:42;;;;;;;2.03;1.93;;;18.70;38.10;;;;;;5001434;28;20465;-65
2022/03/15 00:18:08;;;;;;;1.73;1.60;;;18.70;38.10;;;;;;5000557;28;20452;-66
2022/03/15 00:20:34;;;;;;;2.20;1.80;;;18.70;38.90;;;;;;5001657;28;20449;-65
2022/03/15 00:23:01;;;;;;;2.00;1.90;;;18.70;38.10;;;;;;5000874;28;20550;-66
2022/03/15 00:25:27;;;;;;;4.30;2.37;;;18.70;38.10;;;;;;4998065;28;20220;-66
2022/03/15 00:27:54;;;;;;;2.80;1.83;;;18.70;38.10;;;;;;4997190;28;20505;-65
2022/03/15 00:30:22;;;;;;;2.00;1.90;;;18.70;38.10;;;;;;4998866;28;20821;-65
2022/03/15 00:32:48;;;;;;;1.90;1.80;;;18.70;38.80;;;;;;5000230;28;20449;-65
2022/03/15 00:35:18;;;;;;;2.17;1.90;;;18.60;38.00;;;;;;4999939;28;20457;-66
2022/03/15 00:37:49;;;;;;;1.90;1.80;;;18.70;38.10;;;;;;5002854;28;20454;-65
2022/03/15 00:40:16;;;;;;;1.60;1.50;;;18.70;38.10;;;;;;4997306;28;20472;-66
2022/03/15 00:42:46;;;;;;;1.93;1.80;;;18.70;38.10;;;;;;4997476;28;20483;-66
2022/03/15 00:45:12;;;;;;;1.60;1.50;;;18.60;38.70;;;;;;4999759;28;20454;-66
2022/03/15 00:47:38;;;;;;;2.00;1.90;;;18.60;38.00;;;;;;5001481;28;20426;-65
2022/03/15 00:50:04;;;;;;;2.87;1.90;;;18.70;38.10;;;;;;5000391;28;20225;-65
2022/03/15 00:52:29;;;;;;;2.10;2.00;;;18.60;38.00;;;;;;5000900;28;20662;-66
2022/03/15 00:54:55;;;;;;;1.80;1.70;;;18.60;38.00;;;;;;4998563;28;20466;-65
2022/03/15 00:57:20;;;;;;;1.80;1.70;;;18.70;38.10;;;;;;5002319;28;20223;-66
2022/03/15 00:59:46;;;;;;;1.83;1.73;;;18.60;38.00;;;;;;4998978;28;20244;-66
2022/03/15 01:02:12;;;;;;;1.80;1.70;;;18.60;38.00;;;;;;4999746;28;20219;-66
2022/03/15 01:04:37;;;;;;;1.80;1.70;;;18.60;38.00;;;;;;4998406;28;20227;-66
2022/03/15 01:07:03;;;;;;;1.70;1.60;;;18.60;38.00;;;;;;5000120;28;20331;-66
2022/03/15 01:09:29;;;;;;;1.93;1.80;;;18.60;38.00;;;;;;4997891;28;20681;-65
2022/03/15 01:11:56;;;;;;;2.10;1.90;;;18.60;38.00;;;;;;5004577;28;20250;-67
2022/03/15 01:14:22;;;;;;;1.73;1.63;;;18.60;38.00;;;;;;5001591;28;20224;-67
2022/03/15 01:16:48;;;;;;;1.97;1.87;;;18.60;38.00;;;;;;5000957;28;20959;-67
2022/03/15 01:19:14;;;;;;;1.70;1.60;;;18.60;38.00;;;;;;4997189;28;20251;-66
2022/03/15 01:21:40;;;;;;;2.07;1.97;;;18.70;38.10;;;;;;4998345;28;20623;-66
2022/03/15 01:24:08;;;;;;;2.07;1.97;;;18.60;38.00;;;;;;4999013;28;20450;-66
2022/03/15 01:26:34;;;;;;;1.90;1.80;;;18.60;38.00;;;;;;4999296;28;20843;-67
2022/03/15 01:29:02;;;;;;;1.80;1.70;;;18.60;38.00;;;;;;4998249;28;20447;-65
2022/03/15 01:31:28;;;;;;;1.80;1.70;;;18.60;38.00;;;;;;5000738;28;20449;-66
2022/03/15 01:33:54;;;;;;;2.17;2.03;;;18.70;38.10;;;;;;4999912;28;20452;-65
2022/03/15 01:36:20;;;;;;;2.10;2.00;;;18.60;38.00;;;;;;4997513;28;20282;-66
2022/03/15 01:38:45;;;;;;;2.37;1.70;;;18.60;38.00;;;;;;4998311;28;20244;-66
2022/03/15 01:41:11;;;;;;;2.07;1.97;;;18.60;38.00;;;;;;5000599;28;20504;-66
2022/03/15 01:43:39;;;;;;;2.80;1.97;;;18.60;38.00;;;;;;4997922;28;20254;-67
2022/03/15 01:46:08;;;;;;;2.00;1.90;;;18.60;38.00;;;;;;5000919;28;20217;-66
2022/03/15 01:48:35;;;;;;;1.70;1.60;;;18.60;38.00;;;;;;5000987;28;20970;-66
2022/03/15 01:51:01;;;;;;;1.77;1.67;;;18.60;38.00;;;;;;5005660;28;20457;-65
2022/03/15 01:53:27;;;;;;;1.87;1.77;;;18.60;38.00;;;;;;4997299;28;21004;-66
2022/03/15 01:55:53;;;;;;;1.93;1.83;;;18.60;38.00;;;;;;4997662;28;20582;-66
2022/03/15 01:58:18;;;;;;;2.13;1.93;;;18.60;38.00;;;;;;4999218;28;20243;-67
2022/03/15 02:00:45;;;;;;;2.27;2.00;;;18.60;38.00;;;;;;4995004;28;20566;-66
2022/03/15 02:03:11;;;;;;;2.13;2.00;;;18.60;38.00;;;;;;5001869;28;20228;-66
2022/03/15 02:05:36;;;;;;;1.77;1.67;;;18.60;38.00;;;;;;4998428;28;20453;-66
2022/03/15 02:08:16;;;;;;;2.20;2.00;;;18.60;38.00;;;;;;5001521;28;20234;-66
2022/03/15 02:10:42;;;;;;;2.10;2.00;;;18.60;38.00;;;;;;5002017;28;20255;-65
2022/03/15 02:13:09;;;;;;;2.20;2.10;;;18.60;38.00;;;;;;4998151;28;20454;-65
2022/03/15 02:15:36;;;;;;;2.00;1.90;;;18.60;38.00;;;;;;4998045;28;20428;-65
2022/03/15 02:18:03;;;;;;;1.90;1.80;;;18.60;38.00;;;;;;4998972;28;20533;-65
2022/03/15 02:20:30;;;;;;;2.20;2.07;;;18.60;38.00;;;;;;4999373;28;20477;-66
2022/03/15 02:22:56;;;;;;;2.30;2.00;;;18.60;38.00;;;;;;4997386;28;20416;-65
2022/03/15 02:25:22;;;;;;;1.70;1.60;;;18.60;38.00;;;;;;4999903;28;20437;-65
2022/03/15 02:27:48;;;;;;;2.17;1.60;;;18.60;38.00;;;;;;4998376;28;20963;-64
2022/03/15 02:30:13;;;;;;;3.50;1.97;;;18.60;38.00;;;;;;4996541;28;20235;-66
2022/03/15 02:32:39;;;;;;;1.80;1.70;;;18.60;38.00;;;;;;4998388;28;20224;-65
2022/03/15 02:35:06;;;;;;;2.37;1.70;;;18.60;38.00;;;;;;5000416;28;20230;-65
2022/03/15 02:37:32;;;;;;;2.00;1.70;;;18.60;38.00;;;;;;4998658;28;20296;-66
2022/03/15 02:39:58;;;;;;;1.70;1.60;;;18.60;38.00;;;;;;4999028;28;20473;-65
2022/03/15 02:42:24;;;;;;;2.07;1.97;;;18.60;38.00;;;;;;4999619;28;20689;-65
2022/03/15 02:44:49;;;;;;;1.90;1.80;;;18.60;38.00;;;;;;4999342;28;20504;-65
2022/03/15 02:47:15;;;;;;;1.80;1.70;;;18.60;38.00;;;;;;4998772;28;20256;-66
2022/03/15 02:49:41;;;;;;;2.00;1.90;;;18.60;38.00;;;;;;4997415;28;20228;-65
2022/03/15 02:52:06;;;;;;;1.80;1.70;;;18.60;38.70;;;;;;4995440;28;20224;-66
2022/03/15 02:54:32;;;;;;;1.60;1.50;;;18.60;38.00;;;;;;4998602;28;20235;-66
2022/03/15 02:56:58;;;;;;;2.10;2.00;;;18.60;38.00;;;;;;4998620;28;20669;-65
2022/03/15 02:59:23;;;;;;;3.30;1.83;;;18.60;38.00;;;;;;4997246;28;20406;-65
2022/03/15 03:01:50;;;;;;;2.10;1.90;;;18.60;38.00;;;;;;4996558;28;20228;-65
2022/03/15 03:04:16;;;;;;;1.80;1.70;;;18.60;38.00;;;;;;4995611;28;20228;-66
2022/03/15 03:06:43;;;;;;;1.93;1.83;;;18.60;38.00;;;;;;4999244;28;20463;-65
2022/03/15 03:09:11;;;;;;;1.87;1.77;;;18.60;38.00;;;;;;4996759;28;20945;-65
2022/03/15 03:11:37;;;;;;;2.13;2.00;;;18.60;38.00;;;;;;4997950;28;20458;-65
2022/03/15 03:14:04;;;;;;;2.20;2.10;;;18.60;38.00;;;;;;4998748;28;20481;-64
2022/03/15 03:16:30;;;;;;;1.90;1.80;;;18.60;38.00;;;;;;4998063;28;20421;-65
2022/03/15 03:18:58;;;;;;;1.97;1.70;;;18.60;38.00;;;;;;4997988;28;20442;-65
2022/03/15 03:21:28;;;;;;;2.90;1.93;;;18.60;38.00;;;;;;4996587;28;20416;-66
2022/03/15 03:23:55;;;;;;;1.70;1.60;;;18.60;38.00;;;;;;5006610;28;20495;-65
2022/03/15 03:26:22;;;;;;;2.20;2.03;;;18.60;38.00;;;;;;5002700;28;20483;-65
2022/03/15 03:28:48;;;;;;;1.97;1.87;;;18.60;38.00;;;;;;5000644;28;20486;-65
2022/03/15 03:31:15;;;;;;;1.80;1.70;;;18.60;38.00;;;;;;5000722;28;20461;-66
2022/03/15 03:33:41;;;;;;;2.10;2.00;;;18.60;38.00;;;;;;5001747;28;20351;-66
2022/03/15 03:36:07;;;;;;;1.80;1.70;;;18.60;38.00;;;;;;4996857;28;20919;-66
2022/03/15 03:38:33;;;;;;;1.77;1.67;;;18.60;38.00;;;;;;5005389;28;20228;-66
2022/03/15 03:40:58;;;;;;;3.30;2.00;;;18.60;38.00;;;;;;4998994;28;20454;-66
2022/03/15 03:43:25;;;;;;;1.90;1.80;;;18.60;38.00;;;;;;4998761;28;20784;-65
2022/03/15 03:45:50;;;;;;;2.20;2.10;;;18.60;38.00;;;;;;5000043;28;20670;-65
2022/03/15 03:48:16;;;;;;;1.90;1.80;;;18.60;38.00;;;;;;5001224;28;20465;-65
2022/03/15 03:50:43;;;;;;;2.20;2.00;;;18.60;38.00;;;;;;4997398;28;20232;-66
2022/03/15 03:53:09;;;;;;;2.20;2.00;;;18.60;38.00;;;;;;5000553;28;20221;-65
2022/03/15 03:55:34;;;;;;;1.97;1.80;;;18.60;38.00;;;;;;4999942;28;20806;-64
2022/03/15 03:58:00;;;;;;;2.20;2.10;;;18.60;38.00;;;;;;5002501;28;20432;-66
2022/03/15 04:00:26;;;;;;;1.70;1.60;;;18.60;38.00;;;;;;5002153;28;20236;-65
2022/03/15 04:02:53;;;;;;;2.00;1.90;;;18.60;38.00;;;;;;4997749;28;20455;-66
2022/03/15 04:05:20;;;;;;;1.87;1.77;;;18.60;38.00;;;;;;5003315;28;20235;-66
2022/03/15 04:07:46;;;;;;;2.47;2.30;;;18.60;38.00;;;;;;4998616;28;20456;-65
2022/03/15 04:10:12;;;;;;;2.10;2.00;;;18.60;38.00;;;;;;5000477;28;20461;-65
2022/03/15 04:12:38;;;;;;;1.90;1.80;;;18.60;38.00;;;;;;5000273;28;20465;-66
2022/03/15 04:15:05;;;;;;;2.10;2.00;;;18.60;38.00;;;;;;5006029;28;20438;-65
2022/03/15 04:17:31;;;;;;;2.03;1.83;;;18.60;38.00;;;;;;5003587;28;20551;-66
2022/03/15 04:19:56;;;;;;;2.10;2.00;;;18.60;38.00;;;;;;5000438;28;20941;-66
2022/03/15 04:22:22;;;;;;;1.77;1.67;;;18.60;38.00;;;;;;4998556;28;20784;-65
2022/03/15 04:24:48;;;;;;;1.70;1.60;;;18.60;38.00;;;;;;5000885;28;20224;-66
2022/03/15 04:27:15;;;;;;;1.77;1.67;;;18.60;38.00;;;;;;4995536;28;20229;-66
2022/03/15 04:29:40;;;;;;;2.07;1.87;;;18.60;38.00;;;;;;5002087;28;20747;-66
2022/03/15 04:32:07;;;;;;;1.80;1.70;;;18.60;38.00;;;;;;5008362;28;20419;-66
2022/03/15 04:34:32;;;;;;;1.87;1.77;;;18.60;38.00;;;;;;4998523;28;20228;-66
2022/03/15 04:36:58;;;;;;;1.60;1.50;;;18.60;38.00;;;;;;5000791;28;20436;-66
2022/03/15 04:39:25;;;;;;;1.80;1.70;;;18.60;38.00;;;;;;4997290;28;20240;-66
2022/03/15 04:41:50;;;;;;;1.70;1.60;;;18.60;38.00;;;;;;5004042;28;20686;-65
2022/03/15 04:44:16;;;;;;;1.70;1.60;;;18.60;38.00;;;;;;5002596;28;20557;-66
2022/03/15 04:46:42;;;;;;;2.07;1.90;;;18.60;38.00;;;;;;5002646;28;20228;-66
2022/03/15 04:49:07;;;;;;;2.73;2.20;;;18.60;38.00;;;;;;4999086;28;20305;-66
2022/03/15 04:51:33;;;;;;;1.80;1.70;;;18.60;38.00;;;;;;4999493;28;20215;-66
2022/03/15 04:53:59;;;;;;;1.70;1.60;;;18.60;38.00;;;;;;4997750;28;20705;-65
2022/03/15 04:56:25;;;;;;;1.73;1.63;;;18.60;38.00;;;;;;5001643;28;20281;-66
2022/03/15 04:58:51;;;;;;;1.97;1.87;;;18.60;38.00;;;;;;5000958;28;20236;-65
2022/03/15 05:01:17;;;;;;;1.80;1.70;;;18.60;38.00;;;;;;5001112;28;20466;-66
2022/03/15 05:03:42;;;;;;;1.90;1.80;;;18.60;38.00;;;;;;5001255;28;20238;-66
2022/03/15 05:06:08;;;;;;;1.70;1.60;;;18.60;38.00;;;;;;4995590;28;20225;-66
2022/03/15 05:08:34;;;;;;;2.13;1.97;;;18.60;38.00;;;;;;4999906;28;20223;-64
2022/03/15 05:11:06;;;;;;;1.90;1.80;;;18.60;38.00;;;;;;4999020;28;20251;-66
2022/03/15 05:13:44;;;;;;;2.30;2.10;;;18.60;38.00;;;;;;5002888;28;20669;-66
2022/03/15 05:16:12;;;;;;;2.10;2.00;;;18.60;38.70;;;;;;5001296;28;20461;-66
2022/03/15 05:18:40;;;;;;;1.70;1.60;;;18.60;38.00;;;;;;5005349;28;20446;-66
2022/03/15 05:21:07;;;;;;;2.23;2.13;;;18.60;38.00;;;;;;4995409;28;20465;-67
2022/03/15 05:23:33;;;;;;;1.57;1.47;;;18.60;38.00;;;;;;5001003;28;20457;-67
2022/03/15 05:25:59;;;;;;;2.00;1.90;;;18.60;38.00;;;;;;5002343;28;20421;-65
2022/03/15 05:28:24;;;;;;;1.90;1.80;;;18.60;38.00;;;;;;4997883;28;20527;-67
2022/03/15 05:30:50;;;;;;;1.83;1.60;;;18.60;38.00;;;;;;4996732;28;20243;-65
2022/03/15 05:33:16;;;;;;;1.80;1.70;;;18.60;38.00;;;;;;5002730;28;20306;-65
2022/03/15 05:35:42;;;;;;;1.90;1.70;;;18.60;37.90;;;;;;4997320;28;20855;-65
2022/03/15 05:38:08;;;;;;;1.90;1.80;;;18.70;38.00;;;;;;5001228;28;20228;-65
2022/03/15 05:40:34;;;;;;;1.90;1.80;;;18.70;38.00;;;;;;5000622;28;20261;-64
2022/03/15 05:43:00;;;;;;;2.40;2.20;;;18.70;37.90;;;;;;5001423;28;20998;-66
2022/03/15 05:45:26;;;;;;;1.87;1.77;;;18.70;37.70;;;;;;4996947;28;20413;-62
2022/03/15 05:47:52;;;;;;;1.80;1.70;;;18.80;37.70;;;;;;4999014;28;20224;-65
2022/03/15 05:50:18;;;;;;;2.00;1.90;;;18.80;37.60;;;;;;4997136;28;20220;-65
2022/03/15 05:52:44;;;;;;;2.00;1.83;;;18.80;37.60;;;;;;4998011;28;20457;-65
2022/03/15 05:55:10;;;;;;;1.80;1.70;;;18.80;37.50;;;;;;4999357;28;20508;-66
2022/03/15 05:57:36;;;;;;;1.73;1.63;;;18.80;37.50;;;;;;4994911;28;20577;-65
2022/03/15 06:00:03;;;;;;;1.80;1.70;;;18.80;37.50;;;;;;4996853;28;20474;-65
2022/03/15 06:02:29;;;;;;;1.80;1.70;;;18.80;37.50;;;;;;4984963;28;20296;-64
2022/03/15 06:04:54;;;;;;;1.80;1.70;;;18.80;37.50;;;;;;4974888;28;20967;-64
2022/03/15 06:07:20;;;;;;;2.03;1.70;;;18.80;38.30;;;;;;4978579;28;20865;-65
2022/03/15 06:09:45;;;;;;;1.93;1.83;;;18.80;37.60;;;;;;4979883;28;20315;-64
2022/03/15 06:12:11;;;;;;;3.63;1.70;;;18.80;37.60;;;;;;4980810;28;20235;-64
2022/03/15 06:14:36;;;;;;;2.30;2.10;;;18.80;37.60;;;;;;4975673;28;20221;-65
2022/03/15 06:17:03;;;;;;;2.20;2.10;;;18.80;37.60;;;;;;4982957;28;20224;-62
2022/03/15 06:19:28;;;;;;;1.70;1.60;;;18.80;37.60;;;;;;4980422;28;20248;-62
2022/03/15 06:21:54;;;;;;;1.70;1.60;;;18.80;37.60;;;;;;4977230;28;20471;-63
2022/03/15 06:24:19;;;;;;;2.00;1.90;;;18.80;37.60;;;;;;4980702;28;20650;-62
2022/03/15 06:26:46;;;;;;;3.77;2.63;;;18.80;37.60;;;;;;4977999;28;20278;-65
2022/03/15 06:29:11;;;;;;;1.70;1.60;;;18.80;37.50;;;;;;4979028;28;20216;-62
2022/03/15 06:31:37;;;;;;;1.80;1.70;;;18.80;37.50;;;;;;4975714;28;21230;-62
2022/03/15 06:34:06;;;;;;;1.83;1.73;;;18.80;37.50;;;;;;4978260;28;20705;-62
2022/03/15 06:36:34;;;;;;;1.70;1.60;;;18.80;37.60;;;;;;4998256;28;21220;-67
2022/03/15 06:38:59;;;;;;;1.87;1.77;;;18.80;37.50;;;;;;4999482;28;21075;-67
2022/03/15 06:41:26;;;;;;;4.33;2.00;;;18.80;37.60;;;;;;4994439;28;20462;-64
2022/03/15 06:43:52;;;;;;;1.67;1.57;;;18.80;37.60;;;;;;4996649;28;20228;-62
2022/03/15 06:46:17;;;;;;;1.67;1.57;;;18.80;37.50;;;;;;4996845;28;20457;-63
2022/03/15 06:48:43;;;;;;;2.10;1.90;;;18.80;37.50;;;;;;4999785;28;20258;-63
2022/03/15 06:51:10;;;;;;;2.17;1.70;;;18.80;37.60;;;;;;4996900;28;20220;-62
2022/03/15 06:53:35;;;;;;;1.90;1.80;;;18.80;38.30;;;;;;4995003;28;20580;-62
2022/03/15 06:56:01;;;;;;;4.00;2.17;;;18.80;37.50;;;;;;4996132;28;20457;-63
2022/03/15 06:58:27;;;;;;;2.27;1.97;;;18.80;37.50;;;;;;4996063;28;20286;-63
2022/03/15 07:00:54;;;;;;;1.70;1.60;;;18.80;37.50;;;;;;4995433;28;20231;-63
2022/03/15 07:03:20;;;;;;;3.67;1.97;;;18.80;37.60;;;;;;5000443;28;20718;-62
2022/03/15 07:05:46;;;;;;;2.30;2.10;;;18.80;37.50;;;;;;4997880;28;20425;-62
2022/03/15 07:08:11;;;;;;;1.97;1.87;;;18.80;37.50;;;;;;4996331;28;20773;-62
2022/03/15 07:10:37;;;;;;;1.70;1.60;;;18.80;37.50;;;;;;5001995;28;20688;-62
2022/03/15 07:13:03;;;;;;;1.80;1.70;;;18.80;38.30;;;;;;5001735;28;20677;-62
2022/03/15 07:15:28;;;;;;;2.30;2.10;;;18.80;37.50;;;;;;4994414;28;20278;-62
2022/03/15 07:17:56;;;;;;;1.80;1.70;;;18.80;37.60;;;;;;4993523;28;20682;-62
2022/03/15 07:20:24;;;;;;;2.20;2.00;;;18.80;37.50;;;;;;4998086;28;20234;-62
2022/03/15 07:22:50;;;;;;;4.13;1.60;;;18.80;37.60;;;;;;4998544;28;20425;-62
2022/03/15 07:25:17;;;;;;;1.77;1.63;;;18.80;37.60;;;;;;4997160;28;20448;-62
2022/03/15 07:27:43;;;;;;;2.10;2.00;;;18.80;37.50;;;;;;4998251;28;20818;-63
2022/03/15 07:30:09;;;;;;;1.97;1.77;;;18.80;37.60;;;;;;4997389;28;20879;-62
2022/03/15 07:32:35;;;;;;;2.27;2.07;;;18.80;37.60;;;;;;4995903;28;20538;-62
2022/03/15 07:35:01;;;;;;;1.57;1.47;;;18.80;37.60;;;;;;4998017;28;20568;-63
2022/03/15 07:37:27;;;;;;;1.80;1.70;;;18.80;37.50;;;;;;4994869;28;20235;-62
2022/03/15 07:39:52;;;;;;;1.80;1.70;;;18.80;37.50;;;;;;4999374;28;20539;-62
2022/03/15 07:42:19;;;;;;;1.80;1.70;;;18.80;37.50;;;;;;4998796;28;20255;-62
2022/03/15 07:44:45;;;;;;;1.70;1.60;;;18.80;37.50;;;;;;4999536;28;20219;-62
2022/03/15 07:47:13;;;;;;;2.17;1.70;;;18.80;37.50;;;;;;4996983;28;20451;-61
2022/03/15 07:49:38;;;;;;;1.73;1.63;;;18.80;37.50;;;;;;4997246;28;20496;-62
2022/03/15 07:52:04;;;;;;;2.70;1.67;;;18.80;37.50;;;;;;4995421;28;20457;-62
2022/03/15 07:54:30;;;;;;;4.50;1.90;;;18.80;37.60;;;;;;4998636;28;20244;-61
2022/03/15 07:56:55;;;;;;;1.90;1.80;;;18.80;37.50;;;;;;4995429;28;20224;-61
2022/03/15 07:59:22;;;;;;;2.17;1.70;;;18.80;37.50;;;;;;4996204;28;20634;-62
2022/03/15 08:01:47;;;;;;;1.80;1.70;;;18.80;37.50;;;;;;4996246;28;20224;-64
2022/03/15 08:04:13;;;;;;;5.37;2.00;;;18.80;37.50;;;;;;4997443;28;20475;-64
2022/03/15 08:06:39;;;;;;;2.03;1.77;;;18.80;37.50;;;;;;4996112;28;20220;-63
2022/03/15 08:09:05;;;;;;;2.57;1.83;;;18.80;37.50;;;;;;5003561;28;20228;-63
2022/03/15 08:11:30;;;;;;;1.70;1.60;;;18.80;37.40;;;;;;4999628;28;20596;-63
2022/03/15 08:13:57;;;;;;;1.80;1.70;;;18.80;37.50;;;;;;4998090;28;20567;-62
2022/03/15 08:16:23;;;;;;;3.17;1.87;;;18.80;37.40;;;;;;4998748;28;20307;-62
2022/03/15 08:18:50;;;;;;;1.57;1.47;;;18.80;37.40;;;;;;5000782;28;20465;-63
2022/03/15 08:21:16;;;;;;;5.20;2.10;;;18.80;37.40;;;;;;5002242;28;20488;-62
2022/03/15 08:23:43;;;;;;;1.90;1.80;;;18.80;37.40;;;;;;4999170;28;20545;-62
2022/03/15 08:26:09;;;;;;;1.70;1.60;;;18.80;37.40;;;;;;5004579;28;20532;-63
2022/03/15 08:28:35;;;;;;;1.60;1.50;;;18.80;37.40;;;;;;5004186;28;20517;-62
2022/03/15 08:31:01;;;;;;;1.70;1.57;;;18.80;37.40;;;;;;4999477;28;20576;-62
2022/03/15 08:33:26;;;;;;;1.60;1.50;;;18.80;37.40;;;;;;5001815;28;20266;-62
2022/03/15 08:35:52;;;;;;;1.83;1.73;;;18.80;37.40;;;;;;4998099;28;20764;-63
2022/03/15 08:38:18;;;;;;;2.60;1.70;;;18.80;37.40;;;;;;4996786;28;20224;-62
2022/03/15 08:40:44;;;;;;;1.63;1.53;;;18.80;37.40;;;;;;5000852;28;20785;-62
2022/03/15 08:43:10;;;;;;;2.90;1.50;;;18.80;37.40;;;;;;5001388;28;20457;-61
2022/03/15 08:45:36;;;;;;;1.60;1.50;;;18.80;37.40;;;;;;5002178;28;21004;-61
2022/03/15 08:48:03;;;;;;;1.70;1.53;;;18.80;37.40;;;;;;5001905;28;20641;-62
2022/03/15 08:50:29;;;;;;;1.60;1.50;;;18.80;37.40;;;;;;4999357;28;20279;-61
2022/03/15 08:52:55;;;;;;;2.20;1.47;;;18.80;37.40;;;;;;4997023;28;20445;-62
2022/03/15 08:55:22;;;;;;;3.67;1.60;;;18.80;37.30;;;;;;4996781;28;20467;-62
2022/03/15 08:57:48;;;;;;;2.90;1.40;;;18.80;37.40;;;;;;5000847;28;20546;-62
2022/03/15 09:00:15;;;;;;;1.50;1.40;;;18.80;37.40;;;;;;4999902;28;20850;-62
2022/03/15 09:02:40;;;;;;;1.77;1.53;;;18.80;37.40;;;;;;5002298;28;20435;-62
2022/03/15 09:05:06;;;;;;;1.47;1.37;;;18.80;37.40;;;;;;4999013;28;20433;-62
2022/03/15 09:07:32;;;;;;;1.47;1.37;;;18.80;37.40;;;;;;5004107;28;20244;-62
2022/03/15 09:09:58;;;;;;;1.63;1.53;;;18.80;37.40;;;;;;5002197;28;20547;-62
2022/03/15 09:12:24;;;;;;;1.70;1.60;;;18.80;37.30;;;;;;4999218;28;22956;-61
2022/03/15 09:14:49;;;;;;;1.50;1.40;;;18.80;37.30;;;;;;4994407;28;20224;-62
2022/03/15 09:17:16;;;;;;;1.50;1.40;;;18.80;37.30;;;;;;4999474;28;20235;-62
2022/03/15 09:19:42;;;;;;;1.50;1.40;;;18.80;37.30;;;;;;4998665;28;20232;-61
2022/03/15 09:22:08;;;;;;;1.63;1.53;;;18.80;37.30;;;;;;4996622;28;21044;-62
2022/03/15 09:24:36;;;;;;;1.60;1.50;;;18.80;37.30;;;;;;5000224;28;20453;-61
2022/03/15 09:27:04;;;;;;;1.50;1.40;;;18.80;37.30;;;;;;5000899;28;20251;-62
2022/03/15 09:29:30;;;;;;;2.17;1.40;;;18.80;37.30;;;;;;5004482;28;20457;-62
2022/03/15 09:31:55;;;;;;;1.40;1.30;;;18.80;37.30;;;;;;5006643;28;20445;-62
2022/03/15 09:34:22;;;;;;;1.50;1.40;;;18.80;37.40;;;;;;5002389;28;20458;-62
2022/03/15 09:36:48;;;;;;;1.23;1.13;;;18.80;37.30;;;;;;5003668;28;20272;-61
2022/03/15 09:39:14;;;;;;;1.70;1.60;;;18.80;37.30;;;;;;5001916;28;20473;-62
2022/03/15 09:41:41;;;;;;;1.53;1.43;;;18.80;37.40;;;;;;5003125;28;20428;-61
2022/03/15 09:44:10;;;;;;;1.50;1.40;;;18.80;37.30;;;;;;5006368;28;20243;-62
2022/03/15 09:46:41;;;;;;;1.50;1.40;;;18.80;38.10;;;;;;5002344;28;20478;-63
2022/03/15 09:49:08;;;;;;;1.70;1.37;;;18.80;37.30;;;;;;5002320;28;20575;-64
2022/03/15 09:51:36;;;;;;;1.50;1.40;;;18.80;37.30;;;;;;5006581;28;20889;-63
2022/03/15 09:54:06;;;;;;;1.40;1.30;;;18.80;37.40;;;;;;5004333;28;20536;-63
2022/03/15 09:56:38;;;;;;;1.37;1.27;;;18.80;37.30;;;;;;5003700;28;21010;-62
2022/03/15 09:59:16;;;;;;;1.40;1.30;;;18.80;37.30;;;;;;5000917;28;20456;-63
2022/03/15 10:01:50;;;;;;;1.60;1.50;;;18.80;37.30;;;;;;4999523;28;20549;-62
2022/03/15 10:04:16;;;;;;;1.20;1.10;;;18.80;37.30;;;;;;5005826;28;20560;-62
2022/03/15 10:06:41;;;;;;;1.63;1.40;;;18.80;37.40;;;;;;5003320;28;20435;-62
2022/03/15 10:09:08;;;;;;;4.07;1.37;;;18.70;37.30;;;;;;5002057;28;20462;-62
2022/03/15 10:11:35;;;;;;;2.30;1.10;;;18.70;37.30;;;;;;4999338;28;20315;-61
2022/03/15 10:14:01;;;;;;;1.40;1.30;;;18.70;37.40;;;;;;5003491;28;21108;-62
2022/03/15 10:16:31;;;;;;;1.60;1.50;;;18.80;37.40;;;;;;5002916;28;20928;-62
2022/03/15 10:18:57;;;;;;;1.37;1.20;;;18.70;37.40;;;;;;4997917;28;20456;-62
2022/03/15 10:21:26;;;;;;;1.50;1.40;;;18.80;37.40;;;;;;5003268;28;20468;-62
2022/03/15 10:23:54;;;;;;;1.57;1.47;;;18.70;37.30;;;;;;5004916;28;20508;-62
2022/03/15 10:26:25;;;;;;;1.77;1.23;;;18.70;37.30;;;;;;5005220;28;20520;-62
2022/03/15 10:28:53;;;;;;;1.70;1.33;;;18.70;37.30;;;;;;5001901;28;20463;-61
2022/03/15 10:31:24;;;;;;;1.40;1.30;;;18.70;37.30;;;;;;4998983;28;20470;-62
2022/03/15 10:33:54;;;;;;;1.50;1.40;;;18.80;38.20;;;;;;5005008;28;20458;-62
2022/03/15 10:36:21;;;;;;;1.53;1.43;;;18.80;37.40;;;;;;5004649;28;20456;-62
2022/03/15 10:38:51;;;;;;;1.30;1.20;;;18.70;37.30;;;;;;5004062;28;20458;-62
2022/03/15 10:41:18;;;;;;;1.60;1.50;;;18.70;37.30;;;;;;5003559;28;20555;-62
2022/03/15 10:43:44;;;;;;;1.40;1.30;;;18.70;37.30;;;;;;5000146;28;20922;-62
2022/03/15 10:46:12;;;;;;;1.40;1.30;;;18.70;37.30;;;;;;5003669;28;20850;-62
2022/03/15 10:48:38;;;;;;;1.40;1.30;;;18.70;37.30;;;;;;5001435;28;20440;-62
2022/03/15 10:51:11;;;;;;;1.23;1.13;;;18.70;37.30;;;;;;4998236;28;20449;-62
2022/03/15 10:53:42;;;;;;;1.60;1.50;;;18.70;37.30;;;;;;5005452;28;20565;-64
2022/03/15 10:56:28;;;;;;;1.53;1.23;;;18.70;37.30;;;;;;5005476;28;20468;-63
2022/03/15 10:58:59;;;;;;;2.07;1.40;;;18.70;37.40;;;;;;5001162;28;20474;-63
2022/03/15 11:01:26;;;;;;;1.87;1.20;;;18.70;37.40;;;;;;5004183;28;20467;-63
2022/03/15 11:03:55;;;;;;;1.60;1.50;;;18.70;37.30;;;;;;5001876;28;20432;-63
2022/03/15 11:06:32;;;;;;;1.17;1.07;;;18.70;37.50;;;;;;4997840;28;20458;-62
2022/03/15 11:08:59;;;;;;;1.30;1.20;;;18.70;37.30;;;;;;5000205;28;21040;-61
2022/03/15 11:11:26;;;;;;;1.10;1.00;;;18.70;37.30;;;;;;5005037;28;20457;-63
2022/03/15 11:14:02;;;;;;;1.30;1.20;;;18.70;37.50;;;;;;5001115;28;20513;-63
2022/03/15 11:16:30;;;;;;;1.30;1.20;;;18.70;37.40;;;;;;5005548;28;20793;-60
2022/03/15 11:18:57;;;;;;;1.40;1.30;;;18.70;37.50;;;;;;5000794;28;20464;-62
2022/03/15 11:21:24;;;;;;;1.20;1.10;;;18.70;37.40;;;;;;5004871;28;20536;-62
2022/03/15 11:23:52;;;;;;;1.40;1.30;;;18.70;37.40;;;;;;5003598;28;20946;-62
2022/03/15 11:26:24;;;;;;;1.40;1.30;;;18.70;37.50;;;;;;5002295;28;20561;-62
2022/03/15 11:28:51;;;;;;;1.60;1.50;;;18.70;37.50;;;;;;5003776;28;20542;-62
2022/03/15 11:31:18;;;;;;;1.23;1.13;;;18.70;37.40;;;;;;4999397;28;20536;-61
2022/03/15 11:33:47;;;;;;;1.40;1.30;;;18.70;37.30;;;;;;5002209;28;20456;-62
2022/03/15 11:36:13;;;;;;;1.20;1.10;;;18.80;37.40;;;;;;5002053;28;20453;-61
2022/03/15 11:38:41;;;;;;;1.30;1.20;;;18.80;37.40;;;;;;4997899;28;20468;-62
2022/03/15 11:41:09;;;;;;;1.30;1.20;;;18.70;37.30;;;;;;4999862;28;20320;-61
2022/03/15 11:43:54;;;;;;;1.77;1.40;;;18.70;37.40;;;;;;5005656;28;20417;-61
2022/03/15 11:46:34;;;;;;;1.30;1.20;;;18.70;37.40;;;;;;5004587;28;20463;-62
2022/03/15 11:49:31;;;;;;;1.37;1.27;;;18.70;37.40;;;;;;5000946;28;20450;-61
2022/03/15 11:52:04;;;;;;;1.20;1.10;;;18.70;37.40;;;;;;5009239;28;21448;-62
2022/03/15 11:54:44;;;;;;;1.30;1.20;;;18.70;37.40;;;;;;5003307;28;21036;-61
2022/03/15 11:57:21;;;;;;;1.33;1.23;;;18.70;37.50;;;;;;4998570;28;20439;-61
2022/03/15 11:59:51;;;;;;;1.30;1.20;;;18.70;37.60;;;;;;5005564;28;20950;-61
2022/03/15 12:02:32;;;;;;;1.40;1.30;;;18.70;37.50;;;;;;5000041;28;20436;-61
2022/03/15 12:04:58;;;;;;;1.37;1.27;;;18.70;37.50;;;;;;5007918;28;20424;-61
2022/03/15 12:07:47;;;;;;;1.40;1.30;;;18.70;37.50;;;;;;4998914;28;20434;-62
2022/03/15 12:10:45;;;;;;;1.17;1.07;;;18.70;37.50;;;;;;5003821;28;20223;-62
2022/03/15 12:13:13;;;;;;;1.20;1.10;;;18.70;37.50;;;;;;4979884;28;20440;-61
2022/03/15 12:15:41;;;;;;;1.50;1.40;;;18.70;37.60;;;;;;5007709;28;20476;-61
2022/03/15 12:21:08;;;;;;;1.40;1.30;;;18.70;37.60;;;;;;5002726;28;20791;-62
2022/03/15 12:23:45;;;;;;;1.30;1.20;;;18.60;37.50;;;;;;5001621;28;20512;-61
2022/03/15 12:26:22;;;;;;;1.30;1.20;;;18.60;37.50;;;;;;4997801;28;20753;-61
2022/03/15 12:29:04;;;;;;;1.30;1.20;;;18.60;38.30;;;;;;4980407;28;20444;-62
2022/03/15 12:31:39;;;;;;;1.50;1.20;;;18.60;37.50;;;;;;4984720;28;20421;-62
2022/03/15 12:34:12;;;;;;;1.40;1.30;;;18.60;37.50;;;;;;4979526;28;20460;-62
2022/03/15 12:36:40;;;;;;;1.67;1.20;;;18.60;37.50;;;;;;4979262;28;20437;-62
2022/03/15 12:39:10;;;;;;;1.40;1.30;;;18.60;37.60;;;;;;4979102;28;20459;-61
2022/03/15 12:41:35;;;;;;;1.50;1.40;;;18.70;37.60;;;;;;4978302;28;20456;-62
2022/03/15 12:44:01;;;;;;;1.33;1.23;;;18.60;37.60;;;;;;4981563;28;20421;-62
2022/03/15 12:46:30;;;;;;;1.50;1.40;;;18.60;37.60;;;;;;4981469;28;20221;-61
2022/03/15 12:49:04;;;;;;;1.23;1.13;;;18.60;37.60;;;;;;4983252;28;20232;-63
2022/03/15 12:51:37;;;;;;;1.30;1.20;;;18.60;37.60;;;;;;4984724;28;21178;-63